sensor_id;sensor_type;location;lat;lon;timestamp;pressure;altitude;pressure_sealevel;temperature;humidity
10392;BME280;5242;49.244;6.774;2023-03-26T00:06:42;99034.91;;;6.42;94.70
10392;BME280;5242;49.244;6.774;2023-03-26T00:14:33;99027.22;;;6.44;96.98
10392;BME280;5242;49.244;6.774;2023-03-26T00:22:25;99013.34;;;6.45;96.78
10392;BME280;5242;49.244;6.774;2023-03-26T00:30:17;99008.41;;;6.47;94.14
10392;BME280;5242;49.244;6.774;2023-03-26T00:38:09;99001.53;;;6.50;93.48
10392;BME280;5242;49.244;6.774;2023-03-26T00:46:01;99000.75;;;6.49;93.32
10392;BME280;5242;49.244;6.774;2023-03-26T00:53:54;98980.22;;;6.48;91.94
10392;BME280;5242;49.244;6.774;2023-03-26T01:01:46;98971.31;;;6.48;99.34
10392;BME280;5242;49.244;6.774;2023-03-26T01:09:40;98948.75;;;6.44;95.58
10392;BME280;5242;49.244;6.774;2023-03-26T01:17:40;98926.47;;;6.47;94.69
10392;BME280;5242;49.244;6.774;2023-03-26T01:25:39;98919.59;;;6.49;94.89
10392;BME280;5242;49.244;6.774;2023-03-26T01:41:48;98895.66;;;6.51;95.92
10392;BME280;5242;49.244;6.774;2023-03-26T01:49:41;98868.53;;;6.48;95.52
10392;BME280;5242;49.244;6.774;2023-03-26T01:57:54;98853.56;;;6.38;97.61
10392;BME280;5242;49.244;6.774;2023-03-26T02:05:52;98841.75;;;6.30;94.95
10392;BME280;5242;49.244;6.774;2023-03-26T02:13:45;98838.16;;;6.26;94.81
10392;BME280;5242;49.244;6.774;2023-03-26T02:21:37;98812.44;;;6.32;99.13
10392;BME280;5242;49.244;6.774;2023-03-26T02:29:29;98805.66;;;6.39;97.79
10392;BME280;5242;49.244;6.774;2023-03-26T02:37:21;98790.22;;;6.39;96.77
10392;BME280;5242;49.244;6.774;2023-03-26T02:45:12;98769.13;;;6.45;97.97
10392;BME280;5242;49.244;6.774;2023-03-26T02:53:04;98747.94;;;6.47;97.24
10392;BME280;5242;49.244;6.774;2023-03-26T03:00:56;98749.84;;;6.46;95.66
10392;BME280;5242;49.244;6.774;2023-03-26T03:08:48;98724.72;;;6.46;100.00
10392;BME280;5242;49.244;6.774;2023-03-26T03:16:40;98701.50;;;6.45;97.70
10392;BME280;5242;49.244;6.774;2023-03-26T03:24:32;98709.56;;;6.57;97.82
10392;BME280;5242;49.244;6.774;2023-03-26T03:32:24;98697.53;;;6.70;96.79
10392;BME280;5242;49.244;6.774;2023-03-26T03:40:16;98677.44;;;6.71;97.07
10392;BME280;5242;49.244;6.774;2023-03-26T03:48:08;98647.69;;;6.71;97.20
10392;BME280;5242;49.244;6.774;2023-03-26T03:56:00;98633.47;;;6.74;98.39
10392;BME280;5242;49.244;6.774;2023-03-26T04:03:52;98623.44;;;6.75;99.55
10392;BME280;5242;49.244;6.774;2023-03-26T04:11:44;98628.94;;;6.79;97.71
10392;BME280;5242;49.244;6.774;2023-03-26T04:19:36;98614.97;;;6.77;98.95
10392;BME280;5242;49.244;6.774;2023-03-26T04:27:29;98601.09;;;6.78;98.74
10392;BME280;5242;49.244;6.774;2023-03-26T04:35:23;98559.72;;;6.78;100.00
10392;BME280;5242;49.244;6.774;2023-03-26T04:43:15;98537.97;;;6.74;98.28
10392;BME280;5242;49.244;6.774;2023-03-26T04:51:09;98528.28;;;6.73;98.63
10392;BME280;5242;49.244;6.774;2023-03-26T04:59:12;98518.75;;;6.79;97.92
10392;BME280;5242;49.244;6.774;2023-03-26T05:07:05;98507.59;;;6.81;99.44
10392;BME280;5242;49.244;6.774;2023-03-26T05:14:57;98489.34;;;6.78;98.36
10392;BME280;5242;49.244;6.774;2023-03-26T05:22:49;98483.06;;;6.73;100.00
10392;BME280;5242;49.244;6.774;2023-03-26T05:30:41;98474.94;;;6.73;100.00
10392;BME280;5242;49.244;6.774;2023-03-26T05:38:34;98454.88;;;6.74;100.00
10392;BME280;5242;49.244;6.774;2023-03-26T05:46:26;98429.28;;;6.72;100.00
10392;BME280;5242;49.244;6.774;2023-03-26T05:54:18;98398.31;;;6.69;98.08
10392;BME280;5242;49.244;6.774;2023-03-26T06:02:10;98344.78;;;6.59;100.00
10392;BME280;5242;49.244;6.774;2023-03-26T06:10:02;98315.66;;;6.72;100.00
10392;BME280;5242;49.244;6.774;2023-03-26T06:17:54;98330.03;;;6.76;100.00
10392;BME280;5242;49.244;6.774;2023-03-26T06:25:45;98330.13;;;6.60;100.00
10392;BME280;5242;49.244;6.774;2023-03-26T06:33:38;98320.03;;;6.57;100.00
10392;BME280;5242;49.244;6.774;2023-03-26T06:41:32;98303.00;;;6.57;100.00
10392;BME280;5242;49.244;6.774;2023-03-26T06:49:24;98287.97;;;6.59;100.00
10392;BME280;5242;49.244;6.774;2023-03-26T06:57:16;98293.09;;;6.64;100.00
10392;BME280;5242;49.244;6.774;2023-03-26T07:05:08;98289.06;;;6.97;100.00
10392;BME280;5242;49.244;6.774;2023-03-26T07:13:00;98258.53;;;7.19;100.00
10392;BME280;5242;49.244;6.774;2023-03-26T07:20:52;98269.19;;;7.58;100.00
10392;BME280;5242;49.244;6.774;2023-03-26T07:28:56;98273.31;;;7.75;100.00
10392;BME280;5242;49.244;6.774;2023-03-26T07:37:36;98263.47;;;7.90;100.00
10392;BME280;5242;49.244;6.774;2023-03-26T07:45:18;98252.75;;;9.47;100.00
10392;BME280;5242;49.244;6.774;2023-03-26T07:53:13;98249.56;;;11.95;100.00
10392;BME280;5242;49.244;6.774;2023-03-26T08:01:12;98239.25;;;12.42;88.47
10392;BME280;5242;49.244;6.774;2023-03-26T08:17:02;98249.13;;;10.64;95.01
10392;BME280;5242;49.244;6.774;2023-03-26T08:32:56;98249.56;;;10.98;97.29
10392;BME280;5242;49.244;6.774;2023-03-26T09:05:32;98268.41;;;13.82;65.46
10392;BME280;5242;49.244;6.774;2023-03-26T09:30:27;98258.88;;;16.54;60.59
10392;BME280;5242;49.244;6.774;2023-03-26T09:46:31;98248.38;;;17.87;57.20
10392;BME280;5242;49.244;6.774;2023-03-26T10:52:19;98307.03;;;12.69;59.20
10392;BME280;5242;49.244;6.774;2023-03-26T11:00:19;98302.06;;;12.46;59.01
10392;BME280;5242;49.244;6.774;2023-03-26T11:33:00;98231.72;;;19.51;44.05
10392;BME280;5242;49.244;6.774;2023-03-26T11:40:55;98238.66;;;18.54;44.12
10392;BME280;5242;49.244;6.774;2023-03-26T11:49:00;98235.13;;;17.16;46.79
10392;BME280;5242;49.244;6.774;2023-03-26T11:56:57;98229.94;;;16.09;47.01
10392;BME280;5242;49.244;6.774;2023-03-26T12:05:20;98221.41;;;16.44;45.70
10392;BME280;5242;49.244;6.774;2023-03-26T12:13:34;98224.81;;;16.88;43.01
10392;BME280;5242;49.244;6.774;2023-03-26T12:21:27;98221.25;;;16.51;44.86
10392;BME280;5242;49.244;6.774;2023-03-26T12:29:19;98220.03;;;16.16;44.92
10392;BME280;5242;49.244;6.774;2023-03-26T12:37:32;98221.91;;;15.52;47.16
10392;BME280;5242;49.244;6.774;2023-03-26T12:45:30;98229.47;;;15.24;46.88
10392;BME280;5242;49.244;6.774;2023-03-26T12:53:35;98240.13;;;14.91;47.42
10392;BME280;5242;49.244;6.774;2023-03-26T13:01:37;98236.22;;;14.62;47.72
10392;BME280;5242;49.244;6.774;2023-03-26T13:18:03;98270.91;;;13.06;52.56
10392;BME280;5242;49.244;6.774;2023-03-26T13:51:17;98269.56;;;12.69;54.07
10392;BME280;5242;49.244;6.774;2023-03-26T13:59:25;98266.16;;;12.47;54.01
10392;BME280;5242;49.244;6.774;2023-03-26T14:07:24;98265.97;;;11.91;55.71
10392;BME280;5242;49.244;6.774;2023-03-26T14:15:39;98263.91;;;12.24;55.55
10392;BME280;5242;49.244;6.774;2023-03-26T14:40:06;98248.53;;;13.25;53.85
10392;BME280;5242;49.244;6.774;2023-03-26T15:29:16;98317.84;;;10.43;68.96
10392;BME280;5242;49.244;6.774;2023-03-26T15:54:02;98310.88;;;10.42;70.65
10392;BME280;5242;49.244;6.774;2023-03-26T16:02:07;98306.91;;;10.29;69.36
10392;BME280;5242;49.244;6.774;2023-03-26T16:10:20;98321.16;;;10.11;71.39
10392;BME280;5242;49.244;6.774;2023-03-26T16:18:34;98333.88;;;9.93;72.45
10392;BME280;5242;49.244;6.774;2023-03-26T16:51:14;98323.47;;;9.54;71.74
10392;BME280;5242;49.244;6.774;2023-03-26T16:59:37;98318.69;;;9.40;71.67
10392;BME280;5242;49.244;6.774;2023-03-26T17:07:40;98330.06;;;9.12;71.90
10392;BME280;5242;49.244;6.774;2023-03-26T17:15:43;98340.63;;;8.83;73.51
10392;BME280;5242;49.244;6.774;2023-03-26T17:32:11;98352.66;;;8.52;74.86
10392;BME280;5242;49.244;6.774;2023-03-26T17:48:41;98370.06;;;8.24;76.81
10392;BME280;5242;49.244;6.774;2023-03-26T17:56:38;98367.09;;;8.33;75.86
10392;BME280;5242;49.244;6.774;2023-03-26T18:04:38;98374.19;;;8.15;76.95
10392;BME280;5242;49.244;6.774;2023-03-26T18:20:45;98372.84;;;8.01;78.78
10392;BME280;5242;49.244;6.774;2023-03-26T18:28:42;98382.19;;;8.04;79.28
10392;BME280;5242;49.244;6.774;2023-03-26T18:36:34;98383.38;;;8.06;78.27
10392;BME280;5242;49.244;6.774;2023-03-26T18:44:31;98389.25;;;8.12;78.52
10392;BME280;5242;49.244;6.774;2023-03-26T18:52:28;98393.97;;;8.15;79.22
10392;BME280;5242;49.244;6.774;2023-03-26T19:00:26;98400.19;;;8.16;79.42
10392;BME280;5242;49.244;6.774;2023-03-26T19:08:22;98406.44;;;8.20;80.58
10392;BME280;5242;49.244;6.774;2023-03-26T19:16:19;98430.41;;;8.18;82.06
10392;BME280;5242;49.244;6.774;2023-03-26T19:24:13;98437.59;;;8.06;81.69
10392;BME280;5242;49.244;6.774;2023-03-26T19:32:16;98452.94;;;7.95;85.45
10392;BME280;5242;49.244;6.774;2023-03-26T19:40:17;98464.25;;;7.78;86.70
10392;BME280;5242;49.244;6.774;2023-03-26T19:48:14;98465.97;;;7.67;87.27
10392;BME280;5242;49.244;6.774;2023-03-26T20:04:02;98480.34;;;7.48;87.34
10392;BME280;5242;49.244;6.774;2023-03-26T20:11:55;98480.28;;;7.44;90.20
10392;BME280;5242;49.244;6.774;2023-03-26T20:19:47;98502.56;;;7.37;88.28
10392;BME280;5242;49.244;6.774;2023-03-26T20:27:39;98512.19;;;7.35;89.32
10392;BME280;5242;49.244;6.774;2023-03-26T20:35:31;98525.03;;;7.38;89.37
10392;BME280;5242;49.244;6.774;2023-03-26T20:43:26;98542.00;;;7.35;88.75
10392;BME280;5242;49.244;6.774;2023-03-26T20:51:20;98559.81;;;7.36;90.14
10392;BME280;5242;49.244;6.774;2023-03-26T20:59:16;98573.78;;;7.38;92.14
10392;BME280;5242;49.244;6.774;2023-03-26T21:07:09;98575.72;;;7.37;90.19
10392;BME280;5242;49.244;6.774;2023-03-26T21:15:10;98598.59;;;7.40;91.33
10392;BME280;5242;49.244;6.774;2023-03-26T21:23:45;98604.88;;;7.44;90.63
10392;BME280;5242;49.244;6.774;2023-03-26T21:31:46;98612.63;;;7.46;90.84
10392;BME280;5242;49.244;6.774;2023-03-26T21:39:38;98622.69;;;7.45;91.08
10392;BME280;5242;49.244;6.774;2023-03-26T21:47:33;98640.38;;;7.39;91.75
10392;BME280;5242;49.244;6.774;2023-03-26T21:55:25;98665.66;;;7.27;90.77
10392;BME280;5242;49.244;6.774;2023-03-26T22:03:23;98682.22;;;7.26;92.12
10392;BME280;5242;49.244;6.774;2023-03-26T22:11:16;98685.75;;;7.26;91.24
10392;BME280;5242;49.244;6.774;2023-03-26T22:19:07;98715.19;;;7.28;90.09
10392;BME280;5242;49.244;6.774;2023-03-26T22:26:59;98726.78;;;7.28;90.66
10392;BME280;5242;49.244;6.774;2023-03-26T22:34:51;98743.13;;;7.32;90.10
10392;BME280;5242;49.244;6.774;2023-03-26T22:42:43;98761.41;;;7.35;90.85
10392;BME280;5242;49.244;6.774;2023-03-26T22:50:35;98765.59;;;7.32;90.79
10392;BME280;5242;49.244;6.774;2023-03-26T22:58:27;98792.16;;;7.27;91.32
10392;BME280;5242;49.244;6.774;2023-03-26T23:06:19;98804.81;;;7.23;91.17
10392;BME280;5242;49.244;6.774;2023-03-26T23:14:12;98841.66;;;7.11;90.51
10392;BME280;5242;49.244;6.774;2023-03-26T23:22:03;98853.97;;;7.09;89.84
10392;BME280;5242;49.244;6.774;2023-03-26T23:29:55;98864.63;;;7.02;88.93
10392;BME280;5242;49.244;6.774;2023-03-26T23:37:47;98896.78;;;7.03;88.76
10392;BME280;5242;49.244;6.774;2023-03-26T23:45:45;98913.06;;;6.91;86.88
10392;BME280;5242;49.244;6.774;2023-03-26T23:53:37;98928.50;;;6.90;87.01
